Rosendale, NY

1:12 PM EST on December 07, 2016 (GMT -0500)
87 Grist Mill Road | | Change Station

Elev 244 ft 41.83 °N, 74.06 °W | Updated 18 seconds ago

Mostly Cloudy
Mostly Cloudy
39.9 °F
Feels Like 40 °F
N
1.0
Wind Variable Wind from South
Gusts 2.0 mph

Today
High -- | Low -- °F
--% Chance of Precip.
Yesterday
High -- | Low -- °F
Precip. -- in
Pressure 29.94 in
Visibility 10.0 miles
Clouds Scattered Clouds 1100 ft
Mostly Cloudy 2600 ft
Windchill 40 °F
Dew Point 38 °F
Humidity 94%
Rainfall in
Snow Depth Not available.
7:10 AM 4:25 PM
First Quarter, 54% visible
METAR KPOU 071753Z 22005KT 10SM SCT011 BKN026 04/02 A2994 RMK AO2 SLP137 T00440022 10044 20006 57021
Pressure 29.94 in
Visibility 10.0 miles
Clouds Scattered Clouds 1100 ft
Mostly Cloudy 2600 ft
Windchill 40 °F
Dew Point 38 °F
Humidity 94%
Rainfall in
Snow Depth Not available.
7:10 AM 4:25 PM
First Quarter, 54% visible
METAR KPOU 071753Z 22005KT 10SM SCT011 BKN026 04/02 A2994 RMK AO2 SLP137 T00440022 10044 20006 57021

10-Day Weather Forecast

Almanac

Astronomy

Dec. 07, 2016 Rise Set
Actual Time
Civil Twilight
Nautical Twilight
Astronomical Twilight
Moon
Length of Visible Light
Length of Day
Tomorrow will be .
, % of the Moon is Illuminated

Today's Extremes

State Highs State Lows

Community

WunderPhotos

Upload Photos

1,956,157 photos uploaded!

WunderBlog® & News

Nearby

Air Quality

  Air Quality AQ Index Pollutant
Not available.

Snow Depth

Station Depth Elevation

Earthquake Activity

City Distance Mag. Time & Date
Minimum magnitude displayed is 2.5.

Coastal Water Temperatures

Place Temperature

Stations

Nearby Weather Stations

Station Location Temp. Windchill Dew Point Humidity Wind Precip. Elev Updated Type
                   

Watches & Warnings

There are currently no watches in effect.